Libertad Seis — EA7797 — position and weather

sailwx.info

Track history (hours):
 
Tides and Currents Weather Stations Pressure Air Temp Water Temp Dewpoint Dewpoint Depression Visibility Wind Speed Wind Dir Waves Ship Positions

Libertad Seis

Last reported at 2018-Jun-17 08:52 UTC. Time now 2018-Jun-25 15:55 UTC.
Position N 36°10' W 005°24'.
Warning: this ship's position is 8 days out of date.

Length 24 m; draft 2.8 m.

Type: Tug. MMSI: 224194220.

Date/timePositionNaut miles runAvg speedWind from/ knotsBaromVisibWave heightAir tempDewpointWater temp
2018-Jun-17 08:52N 36°10' W 005°24'0 0.0
2018-Jun-17 08:30N 36°10' W 005°24'0 0.2
2018-Jun-17 07:21N 36°10' W 005°24'3 6.6
2018-Jun-17 06:56N 36°09' W 005°27'1 0.8
2018-Jun-17 06:17N 36°08' W 005°27'0 0.0
2018-Jun-17 05:14N 36°08' W 005°27'0 0.0
2018-Jun-17 04:55N 36°08' W 005°27'1 1.8
2018-Jun-17 04:28N 36°09' W 005°26'2 1.2
2018-Jun-17 02:46N 36°10' W 005°24'0 0.0
2018-Jun-17 02:27N 36°10' W 005°24'0 0.1
2018-Jun-17 02:00N 36°10' W 005°24'0 0.0
2018-Jun-17 00:20N 36°10' W 005°24'0 0.1
2018-Jun-16 23:50N 36°10' W 005°24'0 0.1
2018-Jun-16 23:27N 36°10' W 005°24'0 0.1
2018-Jun-16 22:56N 36°10' W 005°24'0 0.1
2018-Jun-16 22:30N 36°10' W 005°24'0 0.1
2018-Jun-16 22:00N 36°10' W 005°24'0 0.3
2018-Jun-16 21:25N 36°10' W 005°25'0 0.3
2018-Jun-16 21:00N 36°10' W 005°25'0 0.1
2018-Jun-16 20:29N 36°10' W 005°25'0 0.1
2018-Jun-16 20:00N 36°10' W 005°25'0 0.1
2018-Jun-16 19:26N 36°10' W 005°24'3 0.8
2018-Jun-16 16:01N 36°08' W 005°27'2 5.7
2018-Jun-16 15:40N 36°09' W 005°25'0 0.0
2018-Jun-16 15:29N 36°09' W 005°25'0 0.0
2018-Jun-16 15:00N 36°10' W 005°25'2 0.2
2018-Jun-16 06:19N 36°09' W 005°27'0 0.1
2018-Jun-16 00:59N 36°08' W 005°27'1 1.3
2018-Jun-16 00:27N 36°09' W 005°26'0 0.2
2018-Jun-15 23:57N 36°09' W 005°26'0 0.0
2018-Jun-15 23:28N 36°09' W 005°26'0 0.0
2018-Jun-15 23:00N 36°09' W 005°26'0 0.0
2018-Jun-15 22:29N 36°09' W 005°26'0 0.0
2018-Jun-15 21:50N 36°09' W 005°26'0 0.0
2018-Jun-15 21:30N 36°09' W 005°26'0 0.1
2018-Jun-15 21:00N 36°09' W 005°26'0 0.1
2018-Jun-15 20:28N 36°09' W 005°26'0 0.0
2018-Jun-15 19:59N 36°09' W 005°26'0 0.1
2018-Jun-15 19:22N 36°09' W 005°26'0 0.3
2018-Jun-15 19:00N 36°09' W 005°26'0 0.7
2018-Jun-15 18:29N 36°09' W 005°27'0 0.7
2018-Jun-15 17:50N 36°08' W 005°27'1 1.6
2018-Jun-15 17:30N 36°09' W 005°27'1 0.0
2018-Jun-15 01:23N 36°08' W 005°27'2 5.0
2018-Jun-15 00:58N 36°10' W 005°25'0 0.1
2018-Jun-15 00:16N 36°09' W 005°25'0 0.1
2018-Jun-14 23:57N 36°09' W 005°25'0 0.0
2018-Jun-14 23:27N 36°09' W 005°25'0 0.1
2018-Jun-14 23:00N 36°09' W 005°25'0 0.1
2018-Jun-14 21:14N 36°09' W 005°25'0 0.1
2018-Jun-14 21:00N 36°09' W 005°25'0 0.1
2018-Jun-14 20:30N 36°09' W 005°25'0 0.0
2018-Jun-14 19:59N 36°09' W 005°25'0 0.1
2018-Jun-14 19:30N 36°09' W 005°25'  
2018-Jun-10 18:13N 36°09' W 005°26'1 1.8
2018-Jun-10 17:54N 36°08' W 005°26'0 0.0
2018-Jun-10 17:10N 36°08' W 005°26'0 0.0
2018-Jun-10 16:58N 36°08' W 005°26'0 0.0
2018-Jun-10 16:30N 36°08' W 005°26'0 0.0
2018-Jun-10 16:00N 36°08' W 005°26'0 0.0
2018-Jun-10 15:28N 36°08' W 005°26'0 0.0
2018-Jun-10 14:02N 36°08' W 005°26'0 0.0
2018-Jun-10 13:29N 36°08' W 005°26'0 0.0
2018-Jun-10 12:58N 36°08' W 005°26'0 0.2
2018-Jun-10 12:18N 36°08' W 005°26'0 0.1
2018-Jun-10 12:00N 36°08' W 005°26'0 0.1
2018-Jun-10 11:24N 36°08' W 005°26'0 0.0
2018-Jun-10 10:55N 36°08' W 005°26'1 0.3
2018-Jun-10 06:40N 36°09' W 005°25'1 7.3
2018-Jun-10 06:30N 36°08' W 005°27'0 0.2
2018-Jun-10 05:27N 36°08' W 005°27'3 0.7
2018-Jun-10 01:27N 36°10' W 005°24'0 0.0
2018-Jun-09 19:30N 36°10' W 005°24'3 5.0
2018-Jun-09 19:00N 36°09' W 005°27'1 0.1
2018-Jun-09 13:49N 36°08' W 005°27'2 5.9
2018-Jun-09 13:29N 36°10' W 005°25'1 1.1
2018-Jun-09 13:00N 36°10' W 005°25'0 0.5
2018-Jun-09 12:28N 36°10' W 005°24'0 0.1
2018-Jun-09 12:00N 36°10' W 005°24'0 0.0
2018-Jun-09 11:15N 36°10' W 005°24'0 0.2
2018-Jun-09 10:59N 36°10' W 005°24'0 0.0
2018-Jun-09 08:39N 36°10' W 005°24'0 0.0
2018-Jun-09 02:18N 36°10' W 005°24'0 0.0
2018-Jun-09 02:00N 36°10' W 005°24'1 0.3
2018-Jun-08 22:17N 36°10' W 005°23'1 1.1
2018-Jun-08 21:20N 36°10' W 005°24'  
Track history (hours):
 
Tides and Currents Weather Stations Pressure Air Temp Water Temp Dewpoint Dewpoint Depression Visibility Wind Speed Wind Dir Waves Ship Positions

Libertad Seis

Last reported at 2018-Jun-17 08:52 UTC. Time now 2018-Jun-25 15:55 UTC.
Position N 36°10' W 005°24'.
Warning: this ship's position is 8 days out of date.

Length 24 m; draft 2.8 m.

Type: Tug. MMSI: 224194220.

Date/timePositionNaut miles runAvg speedWind from/ knotsBaromVisibWave heightAir tempDewpointWater temp
2018-Jun-17 08:52N 36°10' W 005°24'0 0.0
2018-Jun-17 08:30N 36°10' W 005°24'0 0.2
2018-Jun-17 07:21N 36°10' W 005°24'3 6.6
2018-Jun-17 06:56N 36°09' W 005°27'1 0.8
2018-Jun-17 06:17N 36°08' W 005°27'0 0.0
2018-Jun-17 05:14N 36°08' W 005°27'0 0.0
2018-Jun-17 04:55N 36°08' W 005°27'1 1.8
2018-Jun-17 04:28N 36°09' W 005°26'2 1.2
2018-Jun-17 02:46N 36°10' W 005°24'0 0.0
2018-Jun-17 02:27N 36°10' W 005°24'0 0.1
2018-Jun-17 02:00N 36°10' W 005°24'0 0.0
2018-Jun-17 00:20N 36°10' W 005°24'0 0.1
2018-Jun-16 23:50N 36°10' W 005°24'0 0.1
2018-Jun-16 23:27N 36°10' W 005°24'0 0.1
2018-Jun-16 22:56N 36°10' W 005°24'0 0.1
2018-Jun-16 22:30N 36°10' W 005°24'0 0.1
2018-Jun-16 22:00N 36°10' W 005°24'0 0.3
2018-Jun-16 21:25N 36°10' W 005°25'0 0.3
2018-Jun-16 21:00N 36°10' W 005°25'0 0.1
2018-Jun-16 20:29N 36°10' W 005°25'0 0.1
2018-Jun-16 20:00N 36°10' W 005°25'0 0.1
2018-Jun-16 19:26N 36°10' W 005°24'3 0.8
2018-Jun-16 16:01N 36°08' W 005°27'2 5.7
2018-Jun-16 15:40N 36°09' W 005°25'0 0.0
2018-Jun-16 15:29N 36°09' W 005°25'0 0.0
2018-Jun-16 15:00N 36°10' W 005°25'2 0.2
2018-Jun-16 06:19N 36°09' W 005°27'0 0.1
2018-Jun-16 00:59N 36°08' W 005°27'1 1.3
2018-Jun-16 00:27N 36°09' W 005°26'0 0.2
2018-Jun-15 23:57N 36°09' W 005°26'0 0.0
2018-Jun-15 23:28N 36°09' W 005°26'0 0.0
2018-Jun-15 23:00N 36°09' W 005°26'0 0.0
2018-Jun-15 22:29N 36°09' W 005°26'0 0.0
2018-Jun-15 21:50N 36°09' W 005°26'0 0.0
2018-Jun-15 21:30N 36°09' W 005°26'0 0.1
2018-Jun-15 21:00N 36°09' W 005°26'0 0.1
2018-Jun-15 20:28N 36°09' W 005°26'0 0.0
2018-Jun-15 19:59N 36°09' W 005°26'0 0.1
2018-Jun-15 19:22N 36°09' W 005°26'0 0.3
2018-Jun-15 19:00N 36°09' W 005°26'0 0.7
2018-Jun-15 18:29N 36°09' W 005°27'0 0.7
2018-Jun-15 17:50N 36°08' W 005°27'1 1.6
2018-Jun-15 17:30N 36°09' W 005°27'1 0.0
2018-Jun-15 01:23N 36°08' W 005°27'2 5.0
2018-Jun-15 00:58N 36°10' W 005°25'0 0.1
2018-Jun-15 00:16N 36°09' W 005°25'0 0.1
2018-Jun-14 23:57N 36°09' W 005°25'0 0.0
2018-Jun-14 23:27N 36°09' W 005°25'0 0.1
2018-Jun-14 23:00N 36°09' W 005°25'0 0.1
2018-Jun-14 21:14N 36°09' W 005°25'0 0.1
2018-Jun-14 21:00N 36°09' W 005°25'0 0.1
2018-Jun-14 20:30N 36°09' W 005°25'0 0.0
2018-Jun-14 19:59N 36°09' W 005°25'0 0.1
2018-Jun-14 19:30N 36°09' W 005°25'  
2018-Jun-10 18:13N 36°09' W 005°26'1 1.8
2018-Jun-10 17:54N 36°08' W 005°26'0 0.0
2018-Jun-10 17:10N 36°08' W 005°26'0 0.0
2018-Jun-10 16:58N 36°08' W 005°26'0 0.0
2018-Jun-10 16:30N 36°08' W 005°26'0 0.0
2018-Jun-10 16:00N 36°08' W 005°26'0 0.0
2018-Jun-10 15:28N 36°08' W 005°26'0 0.0
2018-Jun-10 14:02N 36°08' W 005°26'0 0.0
2018-Jun-10 13:29N 36°08' W 005°26'0 0.0
2018-Jun-10 12:58N 36°08' W 005°26'0 0.2
2018-Jun-10 12:18N 36°08' W 005°26'0 0.1
2018-Jun-10 12:00N 36°08' W 005°26'0 0.1
2018-Jun-10 11:24N 36°08' W 005°26'0 0.0
2018-Jun-10 10:55N 36°08' W 005°26'1 0.3
2018-Jun-10 06:40N 36°09' W 005°25'1 7.3
2018-Jun-10 06:30N 36°08' W 005°27'0 0.2
2018-Jun-10 05:27N 36°08' W 005°27'3 0.7
2018-Jun-10 01:27N 36°10' W 005°24'0 0.0
2018-Jun-09 19:30N 36°10' W 005°24'3 5.0
2018-Jun-09 19:00N 36°09' W 005°27'1 0.1
2018-Jun-09 13:49N 36°08' W 005°27'2 5.9
2018-Jun-09 13:29N 36°10' W 005°25'1 1.1
2018-Jun-09 13:00N 36°10' W 005°25'0 0.5
2018-Jun-09 12:28N 36°10' W 005°24'0 0.1
2018-Jun-09 12:00N 36°10' W 005°24'0 0.0
2018-Jun-09 11:15N 36°10' W 005°24'0 0.2
2018-Jun-09 10:59N 36°10' W 005°24'0 0.0
2018-Jun-09 08:39N 36°10' W 005°24'0 0.0
2018-Jun-09 02:18N 36°10' W 005°24'0 0.0
2018-Jun-09 02:00N 36°10' W 005°24'1 0.3
2018-Jun-08 22:17N 36°10' W 005°23'1 1.1
2018-Jun-08 21:20N 36°10' W 005°24'  

Dump ship's entire track history